Avian Flight Center Webcam (1 minute updates)

Looking East from Avian at mid-field (Taxiway E) towards Runway 20-2 (Click for full size image). Image will update automatically every minute.

Bremerton Airport Live Webcam

KPWT 231135Z 00000KT 7SM FEW029 SCT036 BKN047 14/14 A3001 RMK AO1 P0004

Time-lapse movie of yesterday's webcam images

If you are unable to view the movie, download and install the DivX Codec here